Sydney Mines, Canada
Current Conditions -  °F | °C
As of 8:07 PM on Sunday 25 Jan 2015 (Local Time) from CYQY Reporting Station
Broken Clouds Broken Clouds  
Wind Chill: 19°   Ceiling: 6900
Heat Index: 30°   Visibility: 8mi
Dew Point: 27°   Wind: 15mph
Humidity: 86%   Direction: 240°WSW
Pressure: 29.33"   Gusts: 29mph
Location:  46.23°N, 60.22°W
Report Text: CYQY 260007Z 24013G25KT 8SM SCT025 BKN069 M01/M03 A2933 RMK SC3AC3 SLP935
Loading
Personal Weather Stations






























Interactive Weather Map New forecast layout! Learn more

10-Day Weather Forecast

Advertisements
Track Severe Weather on mobile